sensor_id;sensor_type;location;lat;lon;timestamp;pressure;altitude;pressure_sealevel;temperature;humidity
63883;BME280;50047;50.596;30.466;2023-05-21T17:56:58;99775.75;;;15.95;47.28
63883;BME280;50047;50.596;30.466;2023-05-21T17:59:25;99781.19;;;15.92;47.66
63883;BME280;50047;50.596;30.466;2023-05-21T18:01:53;99779.63;;;15.92;48.05
63883;BME280;50047;50.596;30.466;2023-05-21T18:04:20;99782.65;;;15.91;48.99
63883;BME280;50047;50.596;30.466;2023-05-21T18:06:48;99780.03;;;15.87;48.96
63883;BME280;50047;50.596;30.466;2023-05-21T18:09:15;99782.95;;;15.86;48.03
63883;BME280;50047;50.596;30.466;2023-05-21T18:11:42;99780.93;;;15.84;48.31
63883;BME280;50047;50.596;30.466;2023-05-21T18:14:12;99780.52;;;15.82;48.66
63883;BME280;50047;50.596;30.466;2023-05-21T18:16:40;99779.13;;;15.82;47.68
63883;BME280;50047;50.596;30.466;2023-05-21T18:19:07;99778.64;;;15.82;47.43
63883;BME280;50047;50.596;30.466;2023-05-21T18:21:34;99778.84;;;15.81;47.01
63883;BME280;50047;50.596;30.466;2023-05-21T18:24:04;99777.98;;;15.81;46.69
63883;BME280;50047;50.596;30.466;2023-05-21T18:26:32;99776.79;;;15.81;46.87
63883;BME280;50047;50.596;30.466;2023-05-21T18:28:59;99779.73;;;15.78;46.89
63883;BME280;50047;50.596;30.466;2023-05-21T18:31:26;99783.98;;;15.74;46.96
63883;BME280;50047;50.596;30.466;2023-05-21T18:33:54;99780.36;;;15.70;46.98
63883;BME280;50047;50.596;30.466;2023-05-21T18:36:21;99781.48;;;15.69;47.27
63883;BME280;50047;50.596;30.466;2023-05-21T18:38:48;99779.04;;;15.65;47.42
63883;BME280;50047;50.596;30.466;2023-05-21T18:41:15;99777.52;;;15.63;47.54
63883;BME280;50047;50.596;30.466;2023-05-21T18:43:42;99775.66;;;15.59;47.72
63883;BME280;50047;50.596;30.466;2023-05-21T18:46:10;99776.86;;;15.61;47.81
63883;BME280;50047;50.596;30.466;2023-05-21T18:48:37;99776.14;;;15.59;47.94
63883;BME280;50047;50.596;30.466;2023-05-21T18:51:04;99778.68;;;15.59;48.23
63883;BME280;50047;50.596;30.466;2023-05-21T18:53:31;99778.34;;;15.56;48.01
63883;BME280;50047;50.596;30.466;2023-05-21T18:55:59;99777.15;;;15.55;47.93
63883;BME280;50047;50.596;30.466;2023-05-21T18:58:26;99775.96;;;15.54;47.72
63883;BME280;50047;50.596;30.466;2023-05-21T19:00:55;99775.64;;;15.54;47.80
63883;BME280;50047;50.596;30.466;2023-05-21T19:03:22;99775.73;;;15.55;48.14
63883;BME280;50047;50.596;30.466;2023-05-21T19:05:50;99774.17;;;15.51;48.01
63883;BME280;50047;50.596;30.466;2023-05-21T19:08:17;99776.48;;;15.51;48.53
63883;BME280;50047;50.596;30.466;2023-05-21T19:10:44;99774.14;;;15.48;48.75
63883;BME280;50047;50.596;30.466;2023-05-21T19:13:11;99772.61;;;15.46;49.05
63883;BME280;50047;50.596;30.466;2023-05-21T19:15:39;99771.84;;;15.42;49.57
63883;BME280;50047;50.596;30.466;2023-05-21T19:18:06;99770.73;;;15.37;49.92
63883;BME280;50047;50.596;30.466;2023-05-21T19:20:34;99768.23;;;15.31;50.01
63883;BME280;50047;50.596;30.466;2023-05-21T19:23:02;99767.11;;;15.26;49.96
63883;BME280;50047;50.596;30.466;2023-05-21T19:25:30;99765.70;;;15.23;50.43
63883;BME280;50047;50.596;30.466;2023-05-21T19:27:58;99762.67;;;15.15;50.72
63883;BME280;50047;50.596;30.466;2023-05-21T19:30:26;99759.12;;;15.07;50.74
63883;BME280;50047;50.596;30.466;2023-05-21T19:32:54;99758.80;;;15.03;51.14
63883;BME280;50047;50.596;30.466;2023-05-21T19:35:21;99756.88;;;14.97;51.44
63883;BME280;50047;50.596;30.466;2023-05-21T19:37:48;99752.96;;;14.92;51.32
63883;BME280;50047;50.596;30.466;2023-05-21T19:40:16;99753.02;;;14.91;51.85
63883;BME280;50047;50.596;30.466;2023-05-21T19:42:43;99748.09;;;14.86;52.28
63883;BME280;50047;50.596;30.466;2023-05-21T19:45:11;99747.52;;;14.83;52.27
63883;BME280;50047;50.596;30.466;2023-05-21T19:47:39;99745.74;;;14.76;52.64
63883;BME280;50047;50.596;30.466;2023-05-21T19:50:08;99747.49;;;14.72;52.30
63883;BME280;50047;50.596;30.466;2023-05-21T19:52:37;99749.45;;;14.69;52.88
63883;BME280;50047;50.596;30.466;2023-05-21T19:55:05;99750.41;;;14.65;53.09
63883;BME280;50047;50.596;30.466;2023-05-21T19:57:34;99748.20;;;14.63;52.89
63883;BME280;50047;50.596;30.466;2023-05-21T20:00:03;99743.65;;;14.62;52.87
63883;BME280;50047;50.596;30.466;2023-05-21T20:02:38;99746.11;;;14.60;53.02
63883;BME280;50047;50.596;30.466;2023-05-21T20:05:07;99749.60;;;14.58;53.13
63883;BME280;50047;50.596;30.466;2023-05-21T20:07:35;99748.84;;;14.59;53.17
63883;BME280;50047;50.596;30.466;2023-05-21T20:10:02;99749.02;;;14.60;53.13
63883;BME280;50047;50.596;30.466;2023-05-21T20:12:30;99750.30;;;14.58;53.13
63883;BME280;50047;50.596;30.466;2023-05-21T20:14:57;99753.02;;;14.57;53.10
63883;BME280;50047;50.596;30.466;2023-05-21T20:17:25;99755.77;;;14.56;53.73
63883;BME280;50047;50.596;30.466;2023-05-21T20:19:54;99752.55;;;14.53;53.35
63883;BME280;50047;50.596;30.466;2023-05-21T20:22:23;99751.15;;;14.52;53.16
63883;BME280;50047;50.596;30.466;2023-05-21T20:24:50;99750.57;;;14.53;53.08
63883;BME280;50047;50.596;30.466;2023-05-21T20:27:17;99745.65;;;14.52;52.93
63883;BME280;50047;50.596;30.466;2023-05-21T20:29:45;99746.08;;;14.50;52.91
63883;BME280;50047;50.596;30.466;2023-05-21T20:32:12;99746.88;;;14.48;52.99
63883;BME280;50047;50.596;30.466;2023-05-21T20:34:40;99747.95;;;14.51;52.63
63883;BME280;50047;50.596;30.466;2023-05-21T20:37:28;99745.83;;;14.52;52.36
63883;BME280;50047;50.596;30.466;2023-05-21T20:39:58;99745.23;;;14.52;52.42
63883;BME280;50047;50.596;30.466;2023-05-21T20:42:26;99747.43;;;14.52;52.28
63883;BME280;50047;50.596;30.466;2023-05-21T20:45:01;99749.65;;;14.53;52.16
63883;BME280;50047;50.596;30.466;2023-05-21T20:47:28;99749.43;;;14.52;52.17
63883;BME280;50047;50.596;30.466;2023-05-21T20:49:59;99748.83;;;14.52;52.08
63883;BME280;50047;50.596;30.466;2023-05-21T20:52:29;99747.06;;;14.47;52.17
63883;BME280;50047;50.596;30.466;2023-05-21T20:54:56;99751.02;;;14.44;52.29
63883;BME280;50047;50.596;30.466;2023-05-21T20:57:27;99759.20;;;14.43;52.30
63883;BME280;50047;50.596;30.466;2023-05-21T20:59:54;99757.45;;;14.41;52.21
63883;BME280;50047;50.596;30.466;2023-05-21T21:02:22;99751.89;;;14.38;52.27
63883;BME280;50047;50.596;30.466;2023-05-21T21:04:49;99749.38;;;14.34;52.40
63883;BME280;50047;50.596;30.466;2023-05-21T21:07:17;99749.38;;;14.34;52.39
63883;BME280;50047;50.596;30.466;2023-05-21T21:09:45;99747.84;;;14.32;52.46
63883;BME280;50047;50.596;30.466;2023-05-21T21:12:13;99746.64;;;14.25;52.67
63883;BME280;50047;50.596;30.466;2023-05-21T21:14:52;99749.31;;;14.23;52.65
63883;BME280;50047;50.596;30.466;2023-05-21T21:17:20;99749.78;;;14.21;52.80
63883;BME280;50047;50.596;30.466;2023-05-21T21:19:47;99751.54;;;14.20;52.90
63883;BME280;50047;50.596;30.466;2023-05-21T21:22:14;99753.19;;;14.18;52.92
63883;BME280;50047;50.596;30.466;2023-05-21T21:24:43;99753.19;;;14.13;53.22
63883;BME280;50047;50.596;30.466;2023-05-21T21:27:11;99752.67;;;14.11;53.35
63883;BME280;50047;50.596;30.466;2023-05-21T21:29:38;99754.08;;;14.05;53.56
63883;BME280;50047;50.596;30.466;2023-05-21T21:32:06;99750.96;;;14.00;53.56
63883;BME280;50047;50.596;30.466;2023-05-21T21:34:33;99751.70;;;13.95;54.09
63883;BME280;50047;50.596;30.466;2023-05-21T21:37:01;99747.84;;;13.91;53.80
63883;BME280;50047;50.596;30.466;2023-05-21T21:39:28;99748.59;;;13.86;54.27
63883;BME280;50047;50.596;30.466;2023-05-21T21:41:55;99748.33;;;13.83;54.33
63883;BME280;50047;50.596;30.466;2023-05-21T21:44:22;99750.83;;;13.81;54.19
63883;BME280;50047;50.596;30.466;2023-05-21T21:46:50;99753.00;;;13.79;54.32
63883;BME280;50047;50.596;30.466;2023-05-21T21:49:17;99752.54;;;13.75;54.82
63883;BME280;50047;50.596;30.466;2023-05-21T21:51:44;99747.91;;;13.72;54.42
63883;BME280;50047;50.596;30.466;2023-05-21T21:54:12;99749.55;;;13.69;54.46
63883;BME280;50047;50.596;30.466;2023-05-21T21:56:40;99748.53;;;13.69;54.62
63883;BME280;50047;50.596;30.466;2023-05-21T21:59:07;99749.00;;;13.67;54.75
63883;BME280;50047;50.596;30.466;2023-05-21T22:01:35;99744.95;;;13.66;54.54
63883;BME280;50047;50.596;30.466;2023-05-21T22:04:02;99745.11;;;13.66;54.42
63883;BME280;50047;50.596;30.466;2023-05-21T22:06:30;99744.44;;;13.63;54.63
63883;BME280;50047;50.596;30.466;2023-05-21T22:08:57;99745.54;;;13.61;54.56
63883;BME280;50047;50.596;30.466;2023-05-21T22:11:24;99743.20;;;13.60;54.41
63883;BME280;50047;50.596;30.466;2023-05-21T22:13:53;99742.17;;;13.58;54.58
63883;BME280;50047;50.596;30.466;2023-05-21T22:16:20;99744.00;;;13.59;54.38
63883;BME280;50047;50.596;30.466;2023-05-21T22:18:50;99740.98;;;13.60;54.36
63883;BME280;50047;50.596;30.466;2023-05-21T22:21:20;99741.89;;;13.63;54.34
63883;BME280;50047;50.596;30.466;2023-05-21T22:23:53;99741.73;;;13.64;54.51
63883;BME280;50047;50.596;30.466;2023-05-21T22:26:20;99743.27;;;13.61;54.86
63883;BME280;50047;50.596;30.466;2023-05-21T22:28:49;99743.48;;;13.62;54.45
63883;BME280;50047;50.596;30.466;2023-05-21T22:31:16;99747.96;;;13.63;54.61
63883;BME280;50047;50.596;30.466;2023-05-21T22:33:44;99741.46;;;13.63;54.51
63883;BME280;50047;50.596;30.466;2023-05-21T22:36:11;99740.10;;;13.61;54.66
63883;BME280;50047;50.596;30.466;2023-05-21T22:38:38;99737.38;;;13.63;54.47
63883;BME280;50047;50.596;30.466;2023-05-21T22:41:05;99728.98;;;13.63;54.46
63883;BME280;50047;50.596;30.466;2023-05-21T22:43:34;99731.69;;;13.64;54.20
63883;BME280;50047;50.596;30.466;2023-05-21T22:46:03;99732.44;;;13.68;54.29
63883;BME280;50047;50.596;30.466;2023-05-21T22:48:30;99731.70;;;13.68;54.36
63883;BME280;50047;50.596;30.466;2023-05-21T22:50:59;99726.61;;;13.66;54.37
63883;BME280;50047;50.596;30.466;2023-05-21T22:53:27;99730.95;;;13.65;54.44
63883;BME280;50047;50.596;30.466;2023-05-21T22:55:54;99729.09;;;13.63;54.68
63883;BME280;50047;50.596;30.466;2023-05-21T22:58:22;99729.39;;;13.60;54.99
63883;BME280;50047;50.596;30.466;2023-05-21T23:00:49;99722.93;;;13.55;54.87
63883;BME280;50047;50.596;30.466;2023-05-21T23:03:16;99724.21;;;13.54;55.00
63883;BME280;50047;50.596;30.466;2023-05-21T23:05:44;99724.58;;;13.54;54.87
63883;BME280;50047;50.596;30.466;2023-05-21T23:08:12;99725.11;;;13.53;54.68
63883;BME280;50047;50.596;30.466;2023-05-21T23:10:39;99721.54;;;13.52;54.55
63883;BME280;50047;50.596;30.466;2023-05-21T23:13:07;99721.30;;;13.49;54.87
63883;BME280;50047;50.596;30.466;2023-05-21T23:15:34;99725.55;;;13.47;55.07
63883;BME280;50047;50.596;30.466;2023-05-21T23:18:05;99723.04;;;13.46;55.12
63883;BME280;50047;50.596;30.466;2023-05-21T23:20:34;99723.23;;;13.45;55.11
63883;BME280;50047;50.596;30.466;2023-05-21T23:23:03;99718.20;;;13.46;54.84
63883;BME280;50047;50.596;30.466;2023-05-21T23:25:30;99717.65;;;13.45;55.06
63883;BME280;50047;50.596;30.466;2023-05-21T23:27:57;99717.35;;;13.44;54.96
63883;BME280;50047;50.596;30.466;2023-05-21T23:30:24;99718.20;;;13.42;55.21
63883;BME280;50047;50.596;30.466;2023-05-21T23:32:51;99716.19;;;13.41;55.35
63883;BME280;50047;50.596;30.466;2023-05-21T23:35:19;99709.65;;;13.41;55.23
63883;BME280;50047;50.596;30.466;2023-05-21T23:37:46;99713.09;;;13.42;54.84
63883;BME280;50047;50.596;30.466;2023-05-21T23:40:14;99709.17;;;13.43;54.36
63883;BME280;50047;50.596;30.466;2023-05-21T23:42:42;99708.70;;;13.44;54.02
63883;BME280;50047;50.596;30.466;2023-05-21T23:45:09;99703.63;;;13.46;53.61
63883;BME280;50047;50.596;30.466;2023-05-21T23:47:36;99707.42;;;13.48;53.28
63883;BME280;50047;50.596;30.466;2023-05-21T23:50:04;99705.08;;;13.48;53.24
63883;BME280;50047;50.596;30.466;2023-05-21T23:52:32;99703.33;;;13.47;53.22
63883;BME280;50047;50.596;30.466;2023-05-21T23:54:59;99704.08;;;13.48;53.00
63883;BME280;50047;50.596;30.466;2023-05-21T23:57:26;99704.34;;;13.47;53.07
63883;BME280;50047;50.596;30.466;2023-05-21T23:59:53;99703.67;;;13.45;53.17
